sensor_id;sensor_type;location;lat;lon;timestamp;P1;durP1;ratioP1;P2;durP2;ratioP2
24901;SDS011;31328;51.402;0.016;2023-02-04T00:02:24;10.33;;;6.60;;
24901;SDS011;31328;51.402;0.016;2023-02-04T00:04:51;14.20;;;6.70;;
24901;SDS011;31328;51.402;0.016;2023-02-04T00:07:17;11.17;;;6.40;;
24901;SDS011;31328;51.402;0.016;2023-02-04T00:09:44;15.10;;;7.10;;
24901;SDS011;31328;51.402;0.016;2023-02-04T00:12:14;14.47;;;6.90;;
24901;SDS011;31328;51.402;0.016;2023-02-04T00:14:40;12.40;;;6.87;;
24901;SDS011;31328;51.402;0.016;2023-02-04T00:17:07;10.20;;;6.87;;
24901;SDS011;31328;51.402;0.016;2023-02-04T00:19:35;10.03;;;6.50;;
24901;SDS011;31328;51.402;0.016;2023-02-04T00:22:02;12.20;;;6.77;;
24901;SDS011;31328;51.402;0.016;2023-02-04T00:24:29;11.90;;;6.67;;
24901;SDS011;31328;51.402;0.016;2023-02-04T00:26:56;11.90;;;7.10;;
24901;SDS011;31328;51.402;0.016;2023-02-04T00:29:22;9.87;;;6.20;;
24901;SDS011;31328;51.402;0.016;2023-02-04T00:31:48;10.43;;;6.47;;
24901;SDS011;31328;51.402;0.016;2023-02-04T00:34:15;9.07;;;5.87;;
24901;SDS011;31328;51.402;0.016;2023-02-04T00:36:43;10.10;;;6.20;;
24901;SDS011;31328;51.402;0.016;2023-02-04T00:39:09;10.23;;;5.63;;
24901;SDS011;31328;51.402;0.016;2023-02-04T00:41:36;11.67;;;5.30;;
24901;SDS011;31328;51.402;0.016;2023-02-04T00:44:02;11.67;;;6.13;;
24901;SDS011;31328;51.402;0.016;2023-02-04T00:46:29;9.80;;;6.30;;
24901;SDS011;31328;51.402;0.016;2023-02-04T00:48:56;10.23;;;5.83;;
24901;SDS011;31328;51.402;0.016;2023-02-04T00:51:23;10.43;;;6.00;;
24901;SDS011;31328;51.402;0.016;2023-02-04T00:53:49;13.67;;;6.57;;
24901;SDS011;31328;51.402;0.016;2023-02-04T00:56:16;12.00;;;6.93;;
24901;SDS011;31328;51.402;0.016;2023-02-04T00:58:42;10.53;;;7.10;;
24901;SDS011;31328;51.402;0.016;2023-02-04T01:01:08;10.00;;;7.00;;
24901;SDS011;31328;51.402;0.016;2023-02-04T01:03:34;12.43;;;6.93;;
24901;SDS011;31328;51.402;0.016;2023-02-04T01:06:01;10.87;;;7.00;;
24901;SDS011;31328;51.402;0.016;2023-02-04T01:08:27;10.67;;;6.40;;
24901;SDS011;31328;51.402;0.016;2023-02-04T01:10:54;10.60;;;6.47;;
24901;SDS011;31328;51.402;0.016;2023-02-04T01:13:20;8.40;;;6.17;;
24901;SDS011;31328;51.402;0.016;2023-02-04T01:15:47;10.03;;;6.20;;
24901;SDS011;31328;51.402;0.016;2023-02-04T01:18:13;12.13;;;6.90;;
24901;SDS011;31328;51.402;0.016;2023-02-04T01:20:40;12.50;;;6.50;;
24901;SDS011;31328;51.402;0.016;2023-02-04T01:23:07;11.47;;;6.37;;
24901;SDS011;31328;51.402;0.016;2023-02-04T01:25:34;13.87;;;6.83;;
24901;SDS011;31328;51.402;0.016;2023-02-04T01:28:00;9.77;;;6.37;;
24901;SDS011;31328;51.402;0.016;2023-02-04T01:30:29;13.90;;;7.43;;
24901;SDS011;31328;51.402;0.016;2023-02-04T01:32:55;10.43;;;6.03;;
24901;SDS011;31328;51.402;0.016;2023-02-04T01:35:22;9.67;;;6.33;;
24901;SDS011;31328;51.402;0.016;2023-02-04T01:37:48;12.80;;;7.00;;
24901;SDS011;31328;51.402;0.016;2023-02-04T01:40:14;13.53;;;7.97;;
24901;SDS011;31328;51.402;0.016;2023-02-04T01:42:41;13.80;;;6.60;;
24901;SDS011;31328;51.402;0.016;2023-02-04T01:45:08;12.10;;;6.23;;
24901;SDS011;31328;51.402;0.016;2023-02-04T01:47:35;13.40;;;6.60;;
24901;SDS011;31328;51.402;0.016;2023-02-04T01:50:06;14.10;;;6.87;;
24901;SDS011;31328;51.402;0.016;2023-02-04T01:52:36;11.23;;;6.30;;
24901;SDS011;31328;51.402;0.016;2023-02-04T01:55:08;12.00;;;6.63;;
24901;SDS011;31328;51.402;0.016;2023-02-04T01:57:43;11.07;;;7.50;;
24901;SDS011;31328;51.402;0.016;2023-02-04T02:00:14;12.80;;;6.53;;
24901;SDS011;31328;51.402;0.016;2023-02-04T02:02:50;10.90;;;6.20;;
24901;SDS011;31328;51.402;0.016;2023-02-04T02:05:26;10.57;;;6.80;;
24901;SDS011;31328;51.402;0.016;2023-02-04T02:08:02;9.25;;;6.05;;
24901;SDS011;31328;51.402;0.016;2023-02-04T02:10:30;13.27;;;7.03;;
24901;SDS011;31328;51.402;0.016;2023-02-04T02:12:58;11.20;;;6.70;;
24901;SDS011;31328;51.402;0.016;2023-02-04T02:15:25;11.03;;;6.77;;
24901;SDS011;31328;51.402;0.016;2023-02-04T02:17:52;12.93;;;7.00;;
24901;SDS011;31328;51.402;0.016;2023-02-04T02:20:20;11.70;;;7.37;;
24901;SDS011;31328;51.402;0.016;2023-02-04T02:25:27;12.13;;;7.20;;
24901;SDS011;31328;51.402;0.016;2023-02-04T02:27:54;12.93;;;6.93;;
24901;SDS011;31328;51.402;0.016;2023-02-04T02:30:22;11.70;;;6.80;;
24901;SDS011;31328;51.402;0.016;2023-02-04T02:32:48;14.63;;;7.57;;
24901;SDS011;31328;51.402;0.016;2023-02-04T02:35:16;10.47;;;7.00;;
24901;SDS011;31328;51.402;0.016;2023-02-04T02:37:43;14.20;;;7.00;;
24901;SDS011;31328;51.402;0.016;2023-02-04T02:40:11;11.77;;;6.47;;
24901;SDS011;31328;51.402;0.016;2023-02-04T02:42:38;15.73;;;8.20;;
24901;SDS011;31328;51.402;0.016;2023-02-04T02:45:14;12.30;;;7.40;;
24901;SDS011;31328;51.402;0.016;2023-02-04T02:47:49;15.00;;;7.57;;
24901;SDS011;31328;51.402;0.016;2023-02-04T02:50:18;13.07;;;7.03;;
24901;SDS011;31328;51.402;0.016;2023-02-04T02:52:47;13.27;;;6.93;;
24901;SDS011;31328;51.402;0.016;2023-02-04T02:55:16;10.83;;;7.33;;
24901;SDS011;31328;51.402;0.016;2023-02-04T02:57:47;14.77;;;7.70;;
24901;SDS011;31328;51.402;0.016;2023-02-04T03:00:17;13.57;;;7.63;;
24901;SDS011;31328;51.402;0.016;2023-02-04T03:02:51;13.10;;;6.77;;
24901;SDS011;31328;51.402;0.016;2023-02-04T03:05:33;12.13;;;6.80;;
24901;SDS011;31328;51.402;0.016;2023-02-04T03:08:02;15.73;;;8.33;;
24901;SDS011;31328;51.402;0.016;2023-02-04T03:10:29;12.90;;;7.13;;
24901;SDS011;31328;51.402;0.016;2023-02-04T03:12:56;14.60;;;8.93;;
24901;SDS011;31328;51.402;0.016;2023-02-04T03:15:23;16.43;;;7.50;;
24901;SDS011;31328;51.402;0.016;2023-02-04T03:17:50;12.83;;;8.03;;
24901;SDS011;31328;51.402;0.016;2023-02-04T03:20:22;13.97;;;8.17;;
24901;SDS011;31328;51.402;0.016;2023-02-04T03:22:50;11.03;;;6.27;;
24901;SDS011;31328;51.402;0.016;2023-02-04T03:25:17;14.43;;;8.37;;
24901;SDS011;31328;51.402;0.016;2023-02-04T03:27:45;12.83;;;7.60;;
24901;SDS011;31328;51.402;0.016;2023-02-04T03:30:12;16.00;;;7.83;;
24901;SDS011;31328;51.402;0.016;2023-02-04T03:32:38;11.97;;;7.17;;
24901;SDS011;31328;51.402;0.016;2023-02-04T03:35:06;14.40;;;8.23;;
24901;SDS011;31328;51.402;0.016;2023-02-04T03:37:32;11.50;;;7.73;;
24901;SDS011;31328;51.402;0.016;2023-02-04T03:39:59;13.40;;;7.37;;
24901;SDS011;31328;51.402;0.016;2023-02-04T03:42:25;13.30;;;7.57;;
24901;SDS011;31328;51.402;0.016;2023-02-04T03:44:52;13.70;;;7.33;;
24901;SDS011;31328;51.402;0.016;2023-02-04T03:47:18;11.50;;;7.30;;
24901;SDS011;31328;51.402;0.016;2023-02-04T03:49:44;12.97;;;6.43;;
24901;SDS011;31328;51.402;0.016;2023-02-04T03:52:10;12.10;;;7.13;;
24901;SDS011;31328;51.402;0.016;2023-02-04T03:54:37;12.93;;;6.83;;
24901;SDS011;31328;51.402;0.016;2023-02-04T03:57:03;10.73;;;6.70;;
24901;SDS011;31328;51.402;0.016;2023-02-04T03:59:29;12.70;;;7.10;;
24901;SDS011;31328;51.402;0.016;2023-02-04T04:01:56;11.33;;;6.83;;
24901;SDS011;31328;51.402;0.016;2023-02-04T04:04:22;15.23;;;7.53;;
24901;SDS011;31328;51.402;0.016;2023-02-04T04:06:48;13.07;;;7.00;;
24901;SDS011;31328;51.402;0.016;2023-02-04T04:09:14;10.13;;;6.37;;
24901;SDS011;31328;51.402;0.016;2023-02-04T04:11:41;14.40;;;7.10;;
24901;SDS011;31328;51.402;0.016;2023-02-04T04:14:07;11.57;;;7.03;;
24901;SDS011;31328;51.402;0.016;2023-02-04T04:16:34;12.70;;;8.20;;
24901;SDS011;31328;51.402;0.016;2023-02-04T04:19:00;13.03;;;6.90;;
24901;SDS011;31328;51.402;0.016;2023-02-04T04:21:26;12.50;;;7.00;;
24901;SDS011;31328;51.402;0.016;2023-02-04T04:23:53;10.50;;;7.50;;
24901;SDS011;31328;51.402;0.016;2023-02-04T04:26:19;11.93;;;7.60;;
24901;SDS011;31328;51.402;0.016;2023-02-04T04:28:45;13.20;;;7.60;;
24901;SDS011;31328;51.402;0.016;2023-02-04T04:31:12;14.63;;;8.27;;
24901;SDS011;31328;51.402;0.016;2023-02-04T04:33:38;11.53;;;7.40;;
24901;SDS011;31328;51.402;0.016;2023-02-04T04:36:05;13.97;;;7.83;;
24901;SDS011;31328;51.402;0.016;2023-02-04T04:38:32;13.30;;;7.93;;
24901;SDS011;31328;51.402;0.016;2023-02-04T04:40:58;13.90;;;7.83;;
24901;SDS011;31328;51.402;0.016;2023-02-04T04:43:25;11.67;;;7.20;;
24901;SDS011;31328;51.402;0.016;2023-02-04T04:45:51;15.97;;;8.10;;
24901;SDS011;31328;51.402;0.016;2023-02-04T04:48:18;13.60;;;8.60;;
24901;SDS011;31328;51.402;0.016;2023-02-04T04:50:46;14.83;;;8.50;;
24901;SDS011;31328;51.402;0.016;2023-02-04T04:53:12;13.20;;;8.50;;
24901;SDS011;31328;51.402;0.016;2023-02-04T04:55:39;14.10;;;8.17;;
24901;SDS011;31328;51.402;0.016;2023-02-04T04:58:06;13.10;;;8.43;;
24901;SDS011;31328;51.402;0.016;2023-02-04T05:00:33;19.27;;;8.60;;
24901;SDS011;31328;51.402;0.016;2023-02-04T05:02:59;12.10;;;7.77;;
24901;SDS011;31328;51.402;0.016;2023-02-04T05:05:26;18.43;;;9.23;;
24901;SDS011;31328;51.402;0.016;2023-02-04T05:07:52;14.50;;;8.40;;
24901;SDS011;31328;51.402;0.016;2023-02-04T05:10:19;14.77;;;7.77;;
24901;SDS011;31328;51.402;0.016;2023-02-04T05:12:45;16.93;;;8.70;;
24901;SDS011;31328;51.402;0.016;2023-02-04T05:15:12;12.50;;;8.17;;
24901;SDS011;31328;51.402;0.016;2023-02-04T05:17:38;13.87;;;8.77;;
24901;SDS011;31328;51.402;0.016;2023-02-04T05:20:04;23.13;;;8.23;;
24901;SDS011;31328;51.402;0.016;2023-02-04T05:22:31;13.40;;;8.33;;
24901;SDS011;31328;51.402;0.016;2023-02-04T05:24:57;14.03;;;7.97;;
24901;SDS011;31328;51.402;0.016;2023-02-04T05:27:24;15.97;;;8.60;;
24901;SDS011;31328;51.402;0.016;2023-02-04T05:29:50;11.00;;;7.50;;
24901;SDS011;31328;51.402;0.016;2023-02-04T05:32:16;13.07;;;7.93;;
24901;SDS011;31328;51.402;0.016;2023-02-04T05:34:43;14.27;;;8.83;;
24901;SDS011;31328;51.402;0.016;2023-02-04T05:37:09;14.93;;;7.97;;
24901;SDS011;31328;51.402;0.016;2023-02-04T05:39:35;13.03;;;8.23;;
24901;SDS011;31328;51.402;0.016;2023-02-04T05:42:01;12.73;;;6.87;;
24901;SDS011;31328;51.402;0.016;2023-02-04T05:44:28;15.63;;;8.17;;
24901;SDS011;31328;51.402;0.016;2023-02-04T05:46:54;15.23;;;8.17;;
24901;SDS011;31328;51.402;0.016;2023-02-04T05:49:21;12.47;;;7.07;;
24901;SDS011;31328;51.402;0.016;2023-02-04T05:51:48;13.13;;;7.17;;
24901;SDS011;31328;51.402;0.016;2023-02-04T05:54:14;11.17;;;6.53;;
24901;SDS011;31328;51.402;0.016;2023-02-04T05:56:44;14.87;;;7.77;;
24901;SDS011;31328;51.402;0.016;2023-02-04T05:59:12;12.17;;;7.13;;
24901;SDS011;31328;51.402;0.016;2023-02-04T06:01:38;11.63;;;6.47;;
24901;SDS011;31328;51.402;0.016;2023-02-04T06:04:04;11.27;;;6.93;;
24901;SDS011;31328;51.402;0.016;2023-02-04T06:06:31;13.43;;;6.83;;
24901;SDS011;31328;51.402;0.016;2023-02-04T06:08:57;14.47;;;6.43;;
24901;SDS011;31328;51.402;0.016;2023-02-04T06:11:23;11.77;;;6.30;;
24901;SDS011;31328;51.402;0.016;2023-02-04T06:13:50;13.57;;;7.07;;
24901;SDS011;31328;51.402;0.016;2023-02-04T06:16:16;9.70;;;6.10;;
24901;SDS011;31328;51.402;0.016;2023-02-04T06:18:43;11.80;;;6.67;;
24901;SDS011;31328;51.402;0.016;2023-02-04T06:21:09;13.40;;;7.10;;
24901;SDS011;31328;51.402;0.016;2023-02-04T06:23:35;11.03;;;6.33;;
24901;SDS011;31328;51.402;0.016;2023-02-04T06:26:01;10.23;;;6.20;;
24901;SDS011;31328;51.402;0.016;2023-02-04T06:28:28;9.03;;;5.77;;
24901;SDS011;31328;51.402;0.016;2023-02-04T06:30:54;11.50;;;5.77;;
24901;SDS011;31328;51.402;0.016;2023-02-04T06:33:21;10.33;;;6.10;;
24901;SDS011;31328;51.402;0.016;2023-02-04T06:35:49;11.40;;;7.10;;
24901;SDS011;31328;51.402;0.016;2023-02-04T06:38:15;11.23;;;6.40;;
24901;SDS011;31328;51.402;0.016;2023-02-04T06:40:42;11.00;;;5.93;;
24901;SDS011;31328;51.402;0.016;2023-02-04T06:43:08;10.87;;;6.23;;
24901;SDS011;31328;51.402;0.016;2023-02-04T06:45:34;12.13;;;5.93;;
24901;SDS011;31328;51.402;0.016;2023-02-04T06:48:01;7.77;;;5.50;;
24901;SDS011;31328;51.402;0.016;2023-02-04T06:50:27;10.47;;;6.00;;
24901;SDS011;31328;51.402;0.016;2023-02-04T06:52:53;10.33;;;6.70;;
24901;SDS011;31328;51.402;0.016;2023-02-04T06:55:22;13.30;;;7.03;;
24901;SDS011;31328;51.402;0.016;2023-02-04T06:57:48;11.40;;;7.33;;
24901;SDS011;31328;51.402;0.016;2023-02-04T07:00:15;10.70;;;7.03;;
24901;SDS011;31328;51.402;0.016;2023-02-04T07:02:41;11.13;;;6.83;;
24901;SDS011;31328;51.402;0.016;2023-02-04T07:05:08;11.93;;;7.00;;
24901;SDS011;31328;51.402;0.016;2023-02-04T07:07:34;10.73;;;5.73;;
24901;SDS011;31328;51.402;0.016;2023-02-04T07:10:00;11.80;;;6.03;;
24901;SDS011;31328;51.402;0.016;2023-02-04T07:12:27;10.57;;;6.63;;
24901;SDS011;31328;51.402;0.016;2023-02-04T07:14:53;9.37;;;5.90;;
24901;SDS011;31328;51.402;0.016;2023-02-04T07:17:19;10.07;;;6.27;;
24901;SDS011;31328;51.402;0.016;2023-02-04T07:19:46;10.00;;;6.03;;
24901;SDS011;31328;51.402;0.016;2023-02-04T07:22:12;8.23;;;5.37;;
24901;SDS011;31328;51.402;0.016;2023-02-04T07:24:38;12.37;;;6.60;;
24901;SDS011;31328;51.402;0.016;2023-02-04T07:27:05;10.40;;;6.77;;
24901;SDS011;31328;51.402;0.016;2023-02-04T07:29:32;9.57;;;6.23;;
24901;SDS011;31328;51.402;0.016;2023-02-04T07:31:58;9.07;;;6.37;;
24901;SDS011;31328;51.402;0.016;2023-02-04T07:34:24;10.30;;;6.63;;
24901;SDS011;31328;51.402;0.016;2023-02-04T07:36:51;10.67;;;5.97;;
24901;SDS011;31328;51.402;0.016;2023-02-04T07:39:17;11.13;;;6.03;;
24901;SDS011;31328;51.402;0.016;2023-02-04T07:41:43;10.40;;;6.00;;
24901;SDS011;31328;51.402;0.016;2023-02-04T07:44:11;10.77;;;6.53;;
24901;SDS011;31328;51.402;0.016;2023-02-04T07:46:38;9.63;;;6.87;;
24901;SDS011;31328;51.402;0.016;2023-02-04T07:49:04;10.73;;;6.63;;
24901;SDS011;31328;51.402;0.016;2023-02-04T07:51:30;9.83;;;6.70;;
24901;SDS011;31328;51.402;0.016;2023-02-04T07:53:56;12.50;;;6.43;;
24901;SDS011;31328;51.402;0.016;2023-02-04T07:56:23;12.03;;;6.80;;
24901;SDS011;31328;51.402;0.016;2023-02-04T07:58:49;13.20;;;7.40;;
24901;SDS011;31328;51.402;0.016;2023-02-04T08:01:15;10.67;;;6.33;;
24901;SDS011;31328;51.402;0.016;2023-02-04T08:03:42;9.23;;;6.33;;
24901;SDS011;31328;51.402;0.016;2023-02-04T08:06:08;8.67;;;6.10;;
24901;SDS011;31328;51.402;0.016;2023-02-04T08:08:35;9.50;;;6.00;;
24901;SDS011;31328;51.402;0.016;2023-02-04T08:11:01;10.40;;;6.37;;
24901;SDS011;31328;51.402;0.016;2023-02-04T08:13:27;10.57;;;6.47;;
24901;SDS011;31328;51.402;0.016;2023-02-04T08:15:53;8.53;;;5.90;;
24901;SDS011;31328;51.402;0.016;2023-02-04T08:18:20;9.33;;;6.40;;
24901;SDS011;31328;51.402;0.016;2023-02-04T08:20:46;8.50;;;5.93;;
24901;SDS011;31328;51.402;0.016;2023-02-04T08:23:13;11.10;;;6.93;;
24901;SDS011;31328;51.402;0.016;2023-02-04T08:25:39;10.70;;;5.83;;
24901;SDS011;31328;51.402;0.016;2023-02-04T08:28:05;13.10;;;6.20;;
24901;SDS011;31328;51.402;0.016;2023-02-04T08:30:32;10.33;;;5.93;;
24901;SDS011;31328;51.402;0.016;2023-02-04T08:32:58;10.47;;;6.53;;
24901;SDS011;31328;51.402;0.016;2023-02-04T08:35:25;10.63;;;6.37;;
24901;SDS011;31328;51.402;0.016;2023-02-04T08:37:51;8.77;;;5.90;;
24901;SDS011;31328;51.402;0.016;2023-02-04T08:40:17;8.57;;;5.50;;
24901;SDS011;31328;51.402;0.016;2023-02-04T08:42:44;9.67;;;5.87;;
24901;SDS011;31328;51.402;0.016;2023-02-04T08:45:10;10.17;;;6.13;;
24901;SDS011;31328;51.402;0.016;2023-02-04T08:47:36;8.43;;;6.00;;
24901;SDS011;31328;51.402;0.016;2023-02-04T08:50:04;9.03;;;5.60;;
24901;SDS011;31328;51.402;0.016;2023-02-04T08:52:30;8.33;;;5.87;;
24901;SDS011;31328;51.402;0.016;2023-02-04T08:54:57;9.57;;;6.60;;
24901;SDS011;31328;51.402;0.016;2023-02-04T08:57:23;9.17;;;5.83;;
24901;SDS011;31328;51.402;0.016;2023-02-04T08:59:50;8.97;;;5.73;;
24901;SDS011;31328;51.402;0.016;2023-02-04T09:02:17;7.37;;;5.70;;
24901;SDS011;31328;51.402;0.016;2023-02-04T09:04:43;10.43;;;6.00;;
24901;SDS011;31328;51.402;0.016;2023-02-04T09:07:09;7.83;;;5.70;;
24901;SDS011;31328;51.402;0.016;2023-02-04T09:09:36;10.30;;;6.33;;
24901;SDS011;31328;51.402;0.016;2023-02-04T09:12:02;8.80;;;5.70;;
24901;SDS011;31328;51.402;0.016;2023-02-04T09:14:28;7.73;;;5.53;;
24901;SDS011;31328;51.402;0.016;2023-02-04T09:16:55;7.67;;;5.83;;
24901;SDS011;31328;51.402;0.016;2023-02-04T09:19:21;10.13;;;6.00;;
24901;SDS011;31328;51.402;0.016;2023-02-04T09:21:51;8.40;;;5.70;;
24901;SDS011;31328;51.402;0.016;2023-02-04T09:24:18;7.83;;;6.10;;
24901;SDS011;31328;51.402;0.016;2023-02-04T09:26:48;7.87;;;5.33;;
24901;SDS011;31328;51.402;0.016;2023-02-04T09:29:16;8.13;;;5.80;;
24901;SDS011;31328;51.402;0.016;2023-02-04T09:31:42;7.53;;;5.13;;
24901;SDS011;31328;51.402;0.016;2023-02-04T09:34:08;8.90;;;5.83;;
24901;SDS011;31328;51.402;0.016;2023-02-04T09:36:35;8.83;;;5.70;;
24901;SDS011;31328;51.402;0.016;2023-02-04T09:39:04;8.87;;;5.50;;
24901;SDS011;31328;51.402;0.016;2023-02-04T09:41:31;7.20;;;5.13;;
24901;SDS011;31328;51.402;0.016;2023-02-04T09:43:59;6.80;;;4.80;;
24901;SDS011;31328;51.402;0.016;2023-02-04T09:46:26;9.10;;;5.90;;
24901;SDS011;31328;51.402;0.016;2023-02-04T09:48:54;8.57;;;5.27;;
24901;SDS011;31328;51.402;0.016;2023-02-04T09:51:27;7.77;;;5.10;;
24901;SDS011;31328;51.402;0.016;2023-02-04T09:53:57;7.75;;;5.25;;
24901;SDS011;31328;51.402;0.016;2023-02-04T09:56:32;7.83;;;5.20;;
24901;SDS011;31328;51.402;0.016;2023-02-04T09:58:59;6.93;;;4.83;;
24901;SDS011;31328;51.402;0.016;2023-02-04T10:01:26;7.90;;;4.90;;
24901;SDS011;31328;51.402;0.016;2023-02-04T10:03:54;7.30;;;5.63;;
24901;SDS011;31328;51.402;0.016;2023-02-04T10:06:25;7.20;;;4.50;;
24901;SDS011;31328;51.402;0.016;2023-02-04T10:08:51;7.03;;;4.67;;
24901;SDS011;31328;51.402;0.016;2023-02-04T10:11:20;6.53;;;4.10;;
24901;SDS011;31328;51.402;0.016;2023-02-04T10:13:49;7.23;;;4.83;;
24901;SDS011;31328;51.402;0.016;2023-02-04T10:16:19;8.47;;;4.10;;
24901;SDS011;31328;51.402;0.016;2023-02-04T10:18:46;6.43;;;4.07;;
24901;SDS011;31328;51.402;0.016;2023-02-04T10:23:40;6.03;;;4.10;;
24901;SDS011;31328;51.402;0.016;2023-02-04T10:26:11;5.93;;;3.77;;
24901;SDS011;31328;51.402;0.016;2023-02-04T10:28:38;6.00;;;3.67;;
24901;SDS011;31328;51.402;0.016;2023-02-04T10:31:05;5.90;;;3.87;;
24901;SDS011;31328;51.402;0.016;2023-02-04T10:34:00;5.73;;;3.20;;
24901;SDS011;31328;51.402;0.016;2023-02-04T10:36:31;4.60;;;3.00;;
24901;SDS011;31328;51.402;0.016;2023-02-04T10:39:01;5.37;;;3.20;;
24901;SDS011;31328;51.402;0.016;2023-02-04T10:41:29;6.73;;;3.17;;
24901;SDS011;31328;51.402;0.016;2023-02-04T10:44:03;4.40;;;3.13;;
24901;SDS011;31328;51.402;0.016;2023-02-04T10:46:34;5.20;;;2.90;;
24901;SDS011;31328;51.402;0.016;2023-02-04T10:49:04;4.63;;;2.67;;
24901;SDS011;31328;51.402;0.016;2023-02-04T10:51:42;4.83;;;2.93;;
24901;SDS011;31328;51.402;0.016;2023-02-04T10:54:12;4.57;;;3.33;;
24901;SDS011;31328;51.402;0.016;2023-02-04T10:57:19;3.73;;;2.50;;
24901;SDS011;31328;51.402;0.016;2023-02-04T10:59:50;3.57;;;2.50;;
24901;SDS011;31328;51.402;0.016;2023-02-04T11:02:30;3.53;;;2.30;;
24901;SDS011;31328;51.402;0.016;2023-02-04T11:05:16;4.60;;;2.67;;
24901;SDS011;31328;51.402;0.016;2023-02-04T11:07:48;3.00;;;2.10;;
24901;SDS011;31328;51.402;0.016;2023-02-04T11:12:45;3.27;;;2.67;;
24901;SDS011;31328;51.402;0.016;2023-02-04T11:18:10;4.33;;;1.83;;
24901;SDS011;31328;51.402;0.016;2023-02-04T11:20:46;4.50;;;1.77;;
24901;SDS011;31328;51.402;0.016;2023-02-04T11:28:45;1.80;;;1.30;;
24901;SDS011;31328;51.402;0.016;2023-02-04T11:34:11;1.80;;;1.10;;
24901;SDS011;31328;51.402;0.016;2023-02-04T11:36:54;1.70;;;1.50;;
24901;SDS011;31328;51.402;0.016;2023-02-04T11:39:26;2.87;;;1.53;;
24901;SDS011;31328;51.402;0.016;2023-02-04T11:41:58;3.80;;;1.20;;
24901;SDS011;31328;51.402;0.016;2023-02-04T11:44:25;3.23;;;1.50;;
24901;SDS011;31328;51.402;0.016;2023-02-04T11:46:52;2.97;;;1.20;;
24901;SDS011;31328;51.402;0.016;2023-02-04T11:49:20;2.03;;;0.90;;
24901;SDS011;31328;51.402;0.016;2023-02-04T11:51:49;1.43;;;0.90;;
24901;SDS011;31328;51.402;0.016;2023-02-04T11:54:16;1.60;;;0.80;;
24901;SDS011;31328;51.402;0.016;2023-02-04T11:56:44;1.57;;;0.80;;
24901;SDS011;31328;51.402;0.016;2023-02-04T11:59:11;1.37;;;0.60;;
24901;SDS011;31328;51.402;0.016;2023-02-04T12:01:39;0.80;;;0.40;;
24901;SDS011;31328;51.402;0.016;2023-02-04T12:04:07;1.43;;;0.90;;
24901;SDS011;31328;51.402;0.016;2023-02-04T12:06:55;1.93;;;1.20;;
24901;SDS011;31328;51.402;0.016;2023-02-04T12:09:24;3.20;;;1.00;;
24901;SDS011;31328;51.402;0.016;2023-02-04T12:11:58;2.83;;;1.30;;
24901;SDS011;31328;51.402;0.016;2023-02-04T12:14:33;1.60;;;1.00;;
24901;SDS011;31328;51.402;0.016;2023-02-04T12:17:13;2.53;;;1.37;;
24901;SDS011;31328;51.402;0.016;2023-02-04T12:19:46;3.22;;;1.40;;
24901;SDS011;31328;51.402;0.016;2023-02-04T12:22:12;4.60;;;1.10;;
24901;SDS011;31328;51.402;0.016;2023-02-04T12:24:40;3.07;;;0.97;;
24901;SDS011;31328;51.402;0.016;2023-02-04T12:27:07;1.80;;;1.10;;
24901;SDS011;31328;51.402;0.016;2023-02-04T12:29:34;1.93;;;1.40;;
24901;SDS011;31328;51.402;0.016;2023-02-04T12:32:01;6.77;;;2.20;;
24901;SDS011;31328;51.402;0.016;2023-02-04T12:34:27;3.80;;;2.23;;
24901;SDS011;31328;51.402;0.016;2023-02-04T12:36:54;2.90;;;1.80;;
24901;SDS011;31328;51.402;0.016;2023-02-04T12:39:20;3.83;;;1.83;;
24901;SDS011;31328;51.402;0.016;2023-02-04T12:41:46;5.03;;;1.90;;
24901;SDS011;31328;51.402;0.016;2023-02-04T12:44:13;2.00;;;1.50;;
24901;SDS011;31328;51.402;0.016;2023-02-04T12:46:40;3.03;;;1.60;;
24901;SDS011;31328;51.402;0.016;2023-02-04T12:49:06;3.17;;;1.40;;
24901;SDS011;31328;51.402;0.016;2023-02-04T12:51:33;3.33;;;1.40;;
24901;SDS011;31328;51.402;0.016;2023-02-04T12:54:00;4.93;;;1.57;;
24901;SDS011;31328;51.402;0.016;2023-02-04T12:56:26;4.10;;;1.10;;
24901;SDS011;31328;51.402;0.016;2023-02-04T12:58:53;3.73;;;1.27;;
24901;SDS011;31328;51.402;0.016;2023-02-04T13:01:19;6.20;;;2.17;;
24901;SDS011;31328;51.402;0.016;2023-02-04T13:03:45;3.83;;;1.63;;
24901;SDS011;31328;51.402;0.016;2023-02-04T13:06:12;3.20;;;1.37;;
24901;SDS011;31328;51.402;0.016;2023-02-04T13:08:38;3.90;;;2.47;;
24901;SDS011;31328;51.402;0.016;2023-02-04T13:11:04;6.37;;;2.37;;
24901;SDS011;31328;51.402;0.016;2023-02-04T13:13:30;5.10;;;2.33;;
24901;SDS011;31328;51.402;0.016;2023-02-04T13:15:57;7.50;;;2.13;;
24901;SDS011;31328;51.402;0.016;2023-02-04T13:18:23;7.17;;;2.10;;
24901;SDS011;31328;51.402;0.016;2023-02-04T13:20:49;3.27;;;2.40;;
24901;SDS011;31328;51.402;0.016;2023-02-04T13:23:16;5.40;;;2.20;;
24901;SDS011;31328;51.402;0.016;2023-02-04T13:25:42;2.93;;;1.70;;
24901;SDS011;31328;51.402;0.016;2023-02-04T13:28:09;3.70;;;1.70;;
24901;SDS011;31328;51.402;0.016;2023-02-04T13:30:36;3.27;;;2.17;;
24901;SDS011;31328;51.402;0.016;2023-02-04T13:33:02;3.67;;;1.90;;
24901;SDS011;31328;51.402;0.016;2023-02-04T13:35:28;4.23;;;1.90;;
24901;SDS011;31328;51.402;0.016;2023-02-04T13:37:55;4.17;;;2.13;;
24901;SDS011;31328;51.402;0.016;2023-02-04T13:40:21;3.77;;;1.73;;
24901;SDS011;31328;51.402;0.016;2023-02-04T13:42:47;5.73;;;1.50;;
24901;SDS011;31328;51.402;0.016;2023-02-04T13:45:14;4.40;;;1.47;;
24901;SDS011;31328;51.402;0.016;2023-02-04T13:47:41;2.53;;;1.60;;
24901;SDS011;31328;51.402;0.016;2023-02-04T13:50:07;4.47;;;1.60;;
24901;SDS011;31328;51.402;0.016;2023-02-04T13:52:34;4.57;;;1.90;;
24901;SDS011;31328;51.402;0.016;2023-02-04T13:55:00;2.37;;;1.77;;
24901;SDS011;31328;51.402;0.016;2023-02-04T13:57:27;3.93;;;2.80;;
24901;SDS011;31328;51.402;0.016;2023-02-04T13:59:55;4.33;;;2.17;;
24901;SDS011;31328;51.402;0.016;2023-02-04T14:02:21;5.90;;;1.90;;
24901;SDS011;31328;51.402;0.016;2023-02-04T14:04:48;3.63;;;1.87;;
24901;SDS011;31328;51.402;0.016;2023-02-04T14:07:15;3.97;;;2.10;;
24901;SDS011;31328;51.402;0.016;2023-02-04T14:09:41;5.90;;;1.83;;
24901;SDS011;31328;51.402;0.016;2023-02-04T14:12:08;3.53;;;1.30;;
24901;SDS011;31328;51.402;0.016;2023-02-04T14:14:34;6.50;;;2.07;;
24901;SDS011;31328;51.402;0.016;2023-02-04T14:17:00;4.13;;;1.70;;
24901;SDS011;31328;51.402;0.016;2023-02-04T14:19:27;3.90;;;1.60;;
24901;SDS011;31328;51.402;0.016;2023-02-04T14:21:53;4.10;;;1.70;;
24901;SDS011;31328;51.402;0.016;2023-02-04T14:24:19;1.77;;;1.27;;
24901;SDS011;31328;51.402;0.016;2023-02-04T14:26:46;4.17;;;1.80;;
24901;SDS011;31328;51.402;0.016;2023-02-04T14:29:12;6.43;;;1.70;;
24901;SDS011;31328;51.402;0.016;2023-02-04T14:31:39;5.13;;;1.87;;
24901;SDS011;31328;51.402;0.016;2023-02-04T14:34:05;3.77;;;1.63;;
24901;SDS011;31328;51.402;0.016;2023-02-04T14:36:32;2.37;;;1.10;;
24901;SDS011;31328;51.402;0.016;2023-02-04T14:38:58;2.70;;;1.20;;
24901;SDS011;31328;51.402;0.016;2023-02-04T14:41:24;4.40;;;1.33;;
24901;SDS011;31328;51.402;0.016;2023-02-04T14:43:51;3.37;;;1.53;;
24901;SDS011;31328;51.402;0.016;2023-02-04T14:46:18;3.87;;;1.30;;
24901;SDS011;31328;51.402;0.016;2023-02-04T14:48:44;2.70;;;1.70;;
24901;SDS011;31328;51.402;0.016;2023-02-04T14:51:10;2.80;;;1.10;;
24901;SDS011;31328;51.402;0.016;2023-02-04T14:53:37;4.47;;;1.23;;
24901;SDS011;31328;51.402;0.016;2023-02-04T14:56:04;3.17;;;1.07;;
24901;SDS011;31328;51.402;0.016;2023-02-04T14:58:30;1.87;;;0.80;;
24901;SDS011;31328;51.402;0.016;2023-02-04T15:00:56;1.70;;;0.90;;
24901;SDS011;31328;51.402;0.016;2023-02-04T15:03:23;2.63;;;0.97;;